Seth D. Settoon — WDH6866 — position and weather

sailwx.info

Track history (hours):
 
Tides and Currents Weather Stations Pressure Air Temp Water Temp Dewpoint Dewpoint Depression Visibility Wind Speed Wind Dir Waves Ship Positions

Seth D. Settoon

Owner: Settoon Towing, L.L.C., Houma, LA. More information available from US FCC via Universal Licensing System and Coast Guard Vessel Documentation Center.

Last reported at 2017-Nov-06 02:31 UTC. Time now 2017-Nov-21 04:52 UTC.
Position N 29°48' W 092°14'.
Warning: this ship's position is 15 days out of date.

Type: Other ship. MMSI: 367642410.

Date/timePositionNaut miles runAvg speedWind from/ knotsBaromVisibWave heightAir tempDewpointWater temp
2017-Nov-06 02:31N 29°48' W 092°14'1 2.6
2017-Nov-06 02:01N 29°48' W 092°15'1 2.5
2017-Nov-06 01:30N 29°49' W 092°16'0 0.1
2017-Nov-06 01:01N 29°49' W 092°16'2 4.4
2017-Nov-06 00:31N 29°50' W 092°18'39 5.9
2017-Nov-05 17:52N 29°56' W 093°03'2 6.6
2017-Nov-05 17:31N 29°56' W 093°06'3 6.6
2017-Nov-05 17:01N 29°56' W 093°09'3 6.5
2017-Nov-05 16:31N 29°59' W 093°12'3 6.2
2017-Nov-05 16:01N 30°01' W 093°14'3 5.8
2017-Nov-05 15:31N 30°03' W 093°16'3 6.2
2017-Nov-05 15:01N 30°06' W 093°18'0 0.8
2017-Nov-05 14:31N 30°06' W 093°18'0 0.0
2017-Nov-05 14:00N 30°06' W 093°18'0 0.0
2017-Nov-05 13:31N 30°06' W 093°18'0 0.0
2017-Nov-05 13:01N 30°06' W 093°18'0 0.0
2017-Nov-05 12:31N 30°06' W 093°18'0 0.0
2017-Nov-05 12:01N 30°06' W 093°18'1 2.5
2017-Nov-05 11:30N 30°06' W 093°20'2 3.5
2017-Nov-05 11:00N 30°08' W 093°19'0 0.0
2017-Nov-05 10:31N 30°08' W 093°19'0 0.0
2017-Nov-05 10:01N 30°08' W 093°19'0 0.0
2017-Nov-05 09:31N 30°08' W 093°19'0 0.0
2017-Nov-05 09:00N 30°08' W 093°19'0 0.0
2017-Nov-05 08:31N 30°08' W 093°19'0 0.0
2017-Nov-05 08:00N 30°08' W 093°19'0 0.0
2017-Nov-05 07:31N 30°08' W 093°19'0 0.0
2017-Nov-05 07:01N 30°08' W 093°19'0 0.0
2017-Nov-05 06:30N 30°08' W 093°19'0 0.3
2017-Nov-05 06:00N 30°08' W 093°20'0 0.0
2017-Nov-05 05:31N 30°08' W 093°20'0 0.0
2017-Nov-05 05:00N 30°08' W 093°20'0 0.0
2017-Nov-05 04:30N 30°08' W 093°20'0 0.0
2017-Nov-05 04:01N 30°08' W 093°20'0 0.0
2017-Nov-05 03:31N 30°08' W 093°20'0 0.0
2017-Nov-05 03:00N 30°08' W 093°20'0 0.0
2017-Nov-05 02:30N 30°08' W 093°20'0 0.0
2017-Nov-05 02:00N 30°08' W 093°20'0 0.0
2017-Nov-05 01:31N 30°08' W 093°20'0 0.0
2017-Nov-05 01:01N 30°08' W 093°20'0 0.0
2017-Nov-05 00:31N 30°08' W 093°20'0 0.0
2017-Nov-05 00:01N 30°08' W 093°20'0 0.0
2017-Nov-04 23:31N 30°08' W 093°20'0 0.0
2017-Nov-04 23:01N 30°08' W 093°20'0 0.1
2017-Nov-04 22:31N 30°08' W 093°20'0 0.0
2017-Nov-04 22:01N 30°08' W 093°20'1 2.2
2017-Nov-04 21:31N 30°07' W 093°20'2 4.4
2017-Nov-04 21:01N 30°06' W 093°18'2 4.4
2017-Nov-04 20:31N 30°04' W 093°16'3 5.2
2017-Nov-04 20:01N 30°02' W 093°15'3 5.3
2017-Nov-04 19:29N 29°60' W 093°13'3 5.6
2017-Nov-04 18:59N 29°58' W 093°11'2 5.1
2017-Nov-04 18:31N 29°56' W 093°09'3 5.0
2017-Nov-04 18:00N 29°56' W 093°06'39 3.9
2017-Nov-04 08:09N 29°51' W 092°22'1 4.8
2017-Nov-04 08:00N 29°51' W 092°21'2 4.9
2017-Nov-04 07:31N 29°50' W 092°18'2 4.6
2017-Nov-04 07:01N 29°49' W 092°16'2 4.4
2017-Nov-04 06:31N 29°48' W 092°14'3 5.2
2017-Nov-04 06:01N 29°47' W 092°11'3 5.2
2017-Nov-04 05:31N 29°47' W 092°08'3 5.4
2017-Nov-04 05:00N 29°48' W 092°05'2 4.3
2017-Nov-04 04:30N 29°49' W 092°03'6 0.2
2017-Nov-02 22:10N 29°51' W 091°56'1 6.3
2017-Nov-02 22:00N 29°50' W 091°57'3 6.3
2017-Nov-02 21:30N 29°50' W 092°01'3 6.4
2017-Nov-02 21:00N 29°48' W 092°04'3 6.7
2017-Nov-02 20:30N 29°47' W 092°08'3 5.7
2017-Nov-02 20:00N 29°47' W 092°11'0 0.1
2017-Nov-02 19:30N 29°47' W 092°11'0 0.0
2017-Nov-02 19:00N 29°47' W 092°11'2 3.2
2017-Nov-02 18:30N 29°47' W 092°13'1 2.7
2017-Nov-02 18:00N 29°48' W 092°14'2 4.7
2017-Nov-02 17:30N 29°49' W 092°17'3 4.5
2017-Nov-02 16:55N 29°50' W 092°19'39 6.4
2017-Nov-02 10:46N 29°56' W 093°04'2 6.2
2017-Nov-02 10:29N 29°56' W 093°06'3 6.6
2017-Nov-02 10:00N 29°56' W 093°09'3 6.6
2017-Nov-02 09:30N 29°59' W 093°12'3 6.4
2017-Nov-02 09:00N 30°01' W 093°14'3 5.7
2017-Nov-02 08:30N 30°04' W 093°16'2 4.8
2017-Nov-02 08:00N 30°05' W 093°18'2 4.6
2017-Nov-02 07:30N 30°07' W 093°20'2 3.0
2017-Nov-02 07:00N 30°08' W 093°20'0 0.2
2017-Nov-02 06:30N 30°08' W 093°19'0 0.0
2017-Nov-02 06:00N 30°08' W 093°19'0 0.0
2017-Nov-02 05:30N 30°08' W 093°19'0 0.0
2017-Nov-02 05:00N 30°08' W 093°19'0 0.0
2017-Nov-02 04:30N 30°08' W 093°19'0 0.0
2017-Nov-02 04:00N 30°08' W 093°19'0 0.0
2017-Nov-02 03:30N 30°08' W 093°19'0 0.0
2017-Nov-02 03:00N 30°08' W 093°19'0 0.0
2017-Nov-02 02:30N 30°08' W 093°19'0 0.0
2017-Nov-02 02:00N 30°08' W 093°19'0 0.0
2017-Nov-02 01:30N 30°08' W 093°19'0 0.0
2017-Nov-02 01:00N 30°08' W 093°19'0 0.0
2017-Nov-02 00:30N 30°08' W 093°19'0 0.0
2017-Nov-02 00:00N 30°08' W 093°19'0 0.0
2017-Nov-01 23:30N 30°08' W 093°19'0 0.0
2017-Nov-01 23:00N 30°08' W 093°19'0 0.0
2017-Nov-01 22:30N 30°08' W 093°19'0 0.0
2017-Nov-01 22:00N 30°08' W 093°19'0 0.0
2017-Nov-01 21:30N 30°08' W 093°19'0 0.0
2017-Nov-01 21:00N 30°08' W 093°19'0 0.0
2017-Nov-01 20:30N 30°08' W 093°19'0 0.3
2017-Nov-01 20:00N 30°08' W 093°20'2 3.6
2017-Nov-01 19:30N 30°06' W 093°20'1 2.0
2017-Nov-01 19:00N 30°06' W 093°19'0 0.0
2017-Nov-01 18:30N 30°06' W 093°19'59 3.6
2017-Nov-01 02:00N 29°48' W 092°14'3 5.1
2017-Nov-01 01:30N 29°47' W 092°11'0 0.1
2017-Nov-01 01:00N 29°47' W 092°11'0 0.0
2017-Nov-01 00:30N 29°47' W 092°11'2 4.3
2017-Nov-01 00:00N 29°47' W 092°09'3 5.7
2017-Oct-31 23:30N 29°48' W 092°06'3 5.5
2017-Oct-31 23:00N 29°49' W 092°03'6 0.1
2017-Oct-30 03:41N 29°51' W 091°56'1 6.5
2017-Oct-30 03:30N 29°50' W 091°57'3 5.4
2017-Oct-30 03:00N 29°50' W 092°00'3 6.6
2017-Oct-30 02:30N 29°49' W 092°04'3 6.5
2017-Oct-30 02:00N 29°47' W 092°07'3 6.5
2017-Oct-30 01:30N 29°47' W 092°11'3 6.7
2017-Oct-30 01:00N 29°48' W 092°14'3 6.6
2017-Oct-30 00:30N 29°50' W 092°18'40 6.1
2017-Oct-29 17:58N 29°56' W 093°03'3 6.2
2017-Oct-29 17:30N 29°56' W 093°06'3 6.1
2017-Oct-29 17:00N 29°56' W 093°10'3 5.4
2017-Oct-29 16:30N 29°58' W 093°12'3 6.0
2017-Oct-29 16:00N 30°01' W 093°14'2 3.3
2017-Oct-29 15:30N 30°02' W 093°15'3 5.0
2017-Oct-29 15:00N 30°04' W 093°16'2 3.8
2017-Oct-29 14:30N 30°05' W 093°18'1 2.1
2017-Oct-29 14:00N 30°07' W 093°18'0 0.0
2017-Oct-29 13:30N 30°07' W 093°18'0 0.0
2017-Oct-29 13:00N 30°07' W 093°18'0 0.0
2017-Oct-29 12:30N 30°07' W 093°18'0 0.0
2017-Oct-29 12:00N 30°07' W 093°18'0 0.0
2017-Oct-29 11:30N 30°07' W 093°18'0 0.0
2017-Oct-29 11:00N 30°07' W 093°18'0 0.0
2017-Oct-29 10:30N 30°07' W 093°18'0 0.0
2017-Oct-29 10:00N 30°07' W 093°18'0 0.0
2017-Oct-29 09:30N 30°07' W 093°18'0 0.0
2017-Oct-29 09:00N 30°07' W 093°18'0 0.0
2017-Oct-29 08:30N 30°07' W 093°18'0 0.0
2017-Oct-29 08:00N 30°07' W 093°18'0 0.0
2017-Oct-29 07:30N 30°07' W 093°18'0 0.0
2017-Oct-29 07:00N 30°07' W 093°18'0 0.0
2017-Oct-29 06:30N 30°07' W 093°18'0 0.0
2017-Oct-29 06:00N 30°07' W 093°18'0 0.0
2017-Oct-29 05:30N 30°07' W 093°18'0 0.0
2017-Oct-29 05:00N 30°07' W 093°18'0 0.0
2017-Oct-29 04:30N 30°07' W 093°18'0 0.0
2017-Oct-29 04:00N 30°07' W 093°18'1 0.1
2017-Oct-28 19:00N 30°06' W 093°18'1 2.5
2017-Oct-28 18:30N 30°05' W 093°17'1 1.8
2017-Oct-28 18:00N 30°05' W 093°17'0 0.2
2017-Oct-28 17:30N 30°05' W 093°17'0 1.0
2017-Oct-28 17:00N 30°04' W 093°16'2 5.0
2017-Oct-28 16:30N 30°02' W 093°15'2 4.9
2017-Oct-28 16:00N 29°60' W 093°13'3 5.1
2017-Oct-28 15:29N 29°58' W 093°11'2 5.1
2017-Oct-28 15:00N 29°56' W 093°09'3 5.2
2017-Oct-28 14:30N 29°56' W 093°06'2 4.5
2017-Oct-28 13:59N 29°56' W 093°04'37 5.1
2017-Oct-28 06:45N 29°51' W 092°22'1 5.1
2017-Oct-28 06:30N 29°51' W 092°20'2 4.9
2017-Oct-28 06:00N 29°50' W 092°18'2 4.9
2017-Oct-28 05:30N 29°48' W 092°15'3 5.0
2017-Oct-28 05:00N 29°47' W 092°13'1 2.6
2017-Oct-28 04:30N 29°47' W 092°11'1 1.4
2017-Oct-28 04:00N 29°47' W 092°11'3 5.1
2017-Oct-28 03:30N 29°47' W 092°08'3 5.3
2017-Oct-28 02:58N 29°48' W 092°05'5 5.1
2017-Oct-28 02:01N 29°50' W 091°59'1 5.6
2017-Oct-28 01:54N 29°50' W 091°59'2 0.2
2017-Oct-27 11:17N 29°51' W 091°56'1 5.3
2017-Oct-27 11:00N 29°50' W 091°58'3 6.5
2017-Oct-27 10:30N 29°49' W 092°01'3 6.7
2017-Oct-27 10:00N 29°48' W 092°05'3 6.8
2017-Oct-27 09:30N 29°47' W 092°09'2 4.0
2017-Oct-27 09:00N 29°47' W 092°11'0 0.1
2017-Oct-27 08:30N 29°47' W 092°11'1 1.0
2017-Oct-27 08:00N 29°47' W 092°12'2 3.6
2017-Oct-27 07:30N 29°48' W 092°13'1 2.9
2017-Oct-27 07:00N 29°48' W 092°15'3 6.2
2017-Oct-27 06:30N 29°50' W 092°18'3 6.2
2017-Oct-27 06:00N 29°51' W 092°21'  
Track history (hours):
 
Tides and Currents Weather Stations Pressure Air Temp Water Temp Dewpoint Dewpoint Depression Visibility Wind Speed Wind Dir Waves Ship Positions

Seth D. Settoon

Owner: Settoon Towing, L.L.C., Houma, LA. More information available from US FCC via Universal Licensing System and Coast Guard Vessel Documentation Center.

Last reported at 2017-Nov-06 02:31 UTC. Time now 2017-Nov-21 04:52 UTC.
Position N 29°48' W 092°14'.
Warning: this ship's position is 15 days out of date.

Type: Other ship. MMSI: 367642410.

Date/timePositionNaut miles runAvg speedWind from/ knotsBaromVisibWave heightAir tempDewpointWater temp
2017-Nov-06 02:31N 29°48' W 092°14'1 2.6
2017-Nov-06 02:01N 29°48' W 092°15'1 2.5
2017-Nov-06 01:30N 29°49' W 092°16'0 0.1
2017-Nov-06 01:01N 29°49' W 092°16'2 4.4
2017-Nov-06 00:31N 29°50' W 092°18'39 5.9
2017-Nov-05 17:52N 29°56' W 093°03'2 6.6
2017-Nov-05 17:31N 29°56' W 093°06'3 6.6
2017-Nov-05 17:01N 29°56' W 093°09'3 6.5
2017-Nov-05 16:31N 29°59' W 093°12'3 6.2
2017-Nov-05 16:01N 30°01' W 093°14'3 5.8
2017-Nov-05 15:31N 30°03' W 093°16'3 6.2
2017-Nov-05 15:01N 30°06' W 093°18'0 0.8
2017-Nov-05 14:31N 30°06' W 093°18'0 0.0
2017-Nov-05 14:00N 30°06' W 093°18'0 0.0
2017-Nov-05 13:31N 30°06' W 093°18'0 0.0
2017-Nov-05 13:01N 30°06' W 093°18'0 0.0
2017-Nov-05 12:31N 30°06' W 093°18'0 0.0
2017-Nov-05 12:01N 30°06' W 093°18'1 2.5
2017-Nov-05 11:30N 30°06' W 093°20'2 3.5
2017-Nov-05 11:00N 30°08' W 093°19'0 0.0
2017-Nov-05 10:31N 30°08' W 093°19'0 0.0
2017-Nov-05 10:01N 30°08' W 093°19'0 0.0
2017-Nov-05 09:31N 30°08' W 093°19'0 0.0
2017-Nov-05 09:00N 30°08' W 093°19'0 0.0
2017-Nov-05 08:31N 30°08' W 093°19'0 0.0
2017-Nov-05 08:00N 30°08' W 093°19'0 0.0
2017-Nov-05 07:31N 30°08' W 093°19'0 0.0
2017-Nov-05 07:01N 30°08' W 093°19'0 0.0
2017-Nov-05 06:30N 30°08' W 093°19'0 0.3
2017-Nov-05 06:00N 30°08' W 093°20'0 0.0
2017-Nov-05 05:31N 30°08' W 093°20'0 0.0
2017-Nov-05 05:00N 30°08' W 093°20'0 0.0
2017-Nov-05 04:30N 30°08' W 093°20'0 0.0
2017-Nov-05 04:01N 30°08' W 093°20'0 0.0
2017-Nov-05 03:31N 30°08' W 093°20'0 0.0
2017-Nov-05 03:00N 30°08' W 093°20'0 0.0
2017-Nov-05 02:30N 30°08' W 093°20'0 0.0
2017-Nov-05 02:00N 30°08' W 093°20'0 0.0
2017-Nov-05 01:31N 30°08' W 093°20'0 0.0
2017-Nov-05 01:01N 30°08' W 093°20'0 0.0
2017-Nov-05 00:31N 30°08' W 093°20'0 0.0
2017-Nov-05 00:01N 30°08' W 093°20'0 0.0
2017-Nov-04 23:31N 30°08' W 093°20'0 0.0
2017-Nov-04 23:01N 30°08' W 093°20'0 0.1
2017-Nov-04 22:31N 30°08' W 093°20'0 0.0
2017-Nov-04 22:01N 30°08' W 093°20'1 2.2
2017-Nov-04 21:31N 30°07' W 093°20'2 4.4
2017-Nov-04 21:01N 30°06' W 093°18'2 4.4
2017-Nov-04 20:31N 30°04' W 093°16'3 5.2
2017-Nov-04 20:01N 30°02' W 093°15'3 5.3
2017-Nov-04 19:29N 29°60' W 093°13'3 5.6
2017-Nov-04 18:59N 29°58' W 093°11'2 5.1
2017-Nov-04 18:31N 29°56' W 093°09'3 5.0
2017-Nov-04 18:00N 29°56' W 093°06'39 3.9
2017-Nov-04 08:09N 29°51' W 092°22'1 4.8
2017-Nov-04 08:00N 29°51' W 092°21'2 4.9
2017-Nov-04 07:31N 29°50' W 092°18'2 4.6
2017-Nov-04 07:01N 29°49' W 092°16'2 4.4
2017-Nov-04 06:31N 29°48' W 092°14'3 5.2
2017-Nov-04 06:01N 29°47' W 092°11'3 5.2
2017-Nov-04 05:31N 29°47' W 092°08'3 5.4
2017-Nov-04 05:00N 29°48' W 092°05'2 4.3
2017-Nov-04 04:30N 29°49' W 092°03'6 0.2
2017-Nov-02 22:10N 29°51' W 091°56'1 6.3
2017-Nov-02 22:00N 29°50' W 091°57'3 6.3
2017-Nov-02 21:30N 29°50' W 092°01'3 6.4
2017-Nov-02 21:00N 29°48' W 092°04'3 6.7
2017-Nov-02 20:30N 29°47' W 092°08'3 5.7
2017-Nov-02 20:00N 29°47' W 092°11'0 0.1
2017-Nov-02 19:30N 29°47' W 092°11'0 0.0
2017-Nov-02 19:00N 29°47' W 092°11'2 3.2
2017-Nov-02 18:30N 29°47' W 092°13'1 2.7
2017-Nov-02 18:00N 29°48' W 092°14'2 4.7
2017-Nov-02 17:30N 29°49' W 092°17'3 4.5
2017-Nov-02 16:55N 29°50' W 092°19'39 6.4
2017-Nov-02 10:46N 29°56' W 093°04'2 6.2
2017-Nov-02 10:29N 29°56' W 093°06'3 6.6
2017-Nov-02 10:00N 29°56' W 093°09'3 6.6
2017-Nov-02 09:30N 29°59' W 093°12'3 6.4
2017-Nov-02 09:00N 30°01' W 093°14'3 5.7
2017-Nov-02 08:30N 30°04' W 093°16'2 4.8
2017-Nov-02 08:00N 30°05' W 093°18'2 4.6
2017-Nov-02 07:30N 30°07' W 093°20'2 3.0
2017-Nov-02 07:00N 30°08' W 093°20'0 0.2
2017-Nov-02 06:30N 30°08' W 093°19'0 0.0
2017-Nov-02 06:00N 30°08' W 093°19'0 0.0
2017-Nov-02 05:30N 30°08' W 093°19'0 0.0
2017-Nov-02 05:00N 30°08' W 093°19'0 0.0
2017-Nov-02 04:30N 30°08' W 093°19'0 0.0
2017-Nov-02 04:00N 30°08' W 093°19'0 0.0
2017-Nov-02 03:30N 30°08' W 093°19'0 0.0
2017-Nov-02 03:00N 30°08' W 093°19'0 0.0
2017-Nov-02 02:30N 30°08' W 093°19'0 0.0
2017-Nov-02 02:00N 30°08' W 093°19'0 0.0
2017-Nov-02 01:30N 30°08' W 093°19'0 0.0
2017-Nov-02 01:00N 30°08' W 093°19'0 0.0
2017-Nov-02 00:30N 30°08' W 093°19'0 0.0
2017-Nov-02 00:00N 30°08' W 093°19'0 0.0
2017-Nov-01 23:30N 30°08' W 093°19'0 0.0
2017-Nov-01 23:00N 30°08' W 093°19'0 0.0
2017-Nov-01 22:30N 30°08' W 093°19'0 0.0
2017-Nov-01 22:00N 30°08' W 093°19'0 0.0
2017-Nov-01 21:30N 30°08' W 093°19'0 0.0
2017-Nov-01 21:00N 30°08' W 093°19'0 0.0
2017-Nov-01 20:30N 30°08' W 093°19'0 0.3
2017-Nov-01 20:00N 30°08' W 093°20'2 3.6
2017-Nov-01 19:30N 30°06' W 093°20'1 2.0
2017-Nov-01 19:00N 30°06' W 093°19'0 0.0
2017-Nov-01 18:30N 30°06' W 093°19'59 3.6
2017-Nov-01 02:00N 29°48' W 092°14'3 5.1
2017-Nov-01 01:30N 29°47' W 092°11'0 0.1
2017-Nov-01 01:00N 29°47' W 092°11'0 0.0
2017-Nov-01 00:30N 29°47' W 092°11'2 4.3
2017-Nov-01 00:00N 29°47' W 092°09'3 5.7
2017-Oct-31 23:30N 29°48' W 092°06'3 5.5
2017-Oct-31 23:00N 29°49' W 092°03'6 0.1
2017-Oct-30 03:41N 29°51' W 091°56'1 6.5
2017-Oct-30 03:30N 29°50' W 091°57'3 5.4
2017-Oct-30 03:00N 29°50' W 092°00'3 6.6
2017-Oct-30 02:30N 29°49' W 092°04'3 6.5
2017-Oct-30 02:00N 29°47' W 092°07'3 6.5
2017-Oct-30 01:30N 29°47' W 092°11'3 6.7
2017-Oct-30 01:00N 29°48' W 092°14'3 6.6
2017-Oct-30 00:30N 29°50' W 092°18'40 6.1
2017-Oct-29 17:58N 29°56' W 093°03'3 6.2
2017-Oct-29 17:30N 29°56' W 093°06'3 6.1
2017-Oct-29 17:00N 29°56' W 093°10'3 5.4
2017-Oct-29 16:30N 29°58' W 093°12'3 6.0
2017-Oct-29 16:00N 30°01' W 093°14'2 3.3
2017-Oct-29 15:30N 30°02' W 093°15'3 5.0
2017-Oct-29 15:00N 30°04' W 093°16'2 3.8
2017-Oct-29 14:30N 30°05' W 093°18'1 2.1
2017-Oct-29 14:00N 30°07' W 093°18'0 0.0
2017-Oct-29 13:30N 30°07' W 093°18'0 0.0
2017-Oct-29 13:00N 30°07' W 093°18'0 0.0
2017-Oct-29 12:30N 30°07' W 093°18'0 0.0
2017-Oct-29 12:00N 30°07' W 093°18'0 0.0
2017-Oct-29 11:30N 30°07' W 093°18'0 0.0
2017-Oct-29 11:00N 30°07' W 093°18'0 0.0
2017-Oct-29 10:30N 30°07' W 093°18'0 0.0
2017-Oct-29 10:00N 30°07' W 093°18'0 0.0
2017-Oct-29 09:30N 30°07' W 093°18'0 0.0
2017-Oct-29 09:00N 30°07' W 093°18'0 0.0
2017-Oct-29 08:30N 30°07' W 093°18'0 0.0
2017-Oct-29 08:00N 30°07' W 093°18'0 0.0
2017-Oct-29 07:30N 30°07' W 093°18'0 0.0
2017-Oct-29 07:00N 30°07' W 093°18'0 0.0
2017-Oct-29 06:30N 30°07' W 093°18'0 0.0
2017-Oct-29 06:00N 30°07' W 093°18'0 0.0
2017-Oct-29 05:30N 30°07' W 093°18'0 0.0
2017-Oct-29 05:00N 30°07' W 093°18'0 0.0
2017-Oct-29 04:30N 30°07' W 093°18'0 0.0
2017-Oct-29 04:00N 30°07' W 093°18'1 0.1
2017-Oct-28 19:00N 30°06' W 093°18'1 2.5
2017-Oct-28 18:30N 30°05' W 093°17'1 1.8
2017-Oct-28 18:00N 30°05' W 093°17'0 0.2
2017-Oct-28 17:30N 30°05' W 093°17'0 1.0
2017-Oct-28 17:00N 30°04' W 093°16'2 5.0
2017-Oct-28 16:30N 30°02' W 093°15'2 4.9
2017-Oct-28 16:00N 29°60' W 093°13'3 5.1
2017-Oct-28 15:29N 29°58' W 093°11'2 5.1
2017-Oct-28 15:00N 29°56' W 093°09'3 5.2
2017-Oct-28 14:30N 29°56' W 093°06'2 4.5
2017-Oct-28 13:59N 29°56' W 093°04'37 5.1
2017-Oct-28 06:45N 29°51' W 092°22'1 5.1
2017-Oct-28 06:30N 29°51' W 092°20'2 4.9
2017-Oct-28 06:00N 29°50' W 092°18'2 4.9
2017-Oct-28 05:30N 29°48' W 092°15'3 5.0
2017-Oct-28 05:00N 29°47' W 092°13'1 2.6
2017-Oct-28 04:30N 29°47' W 092°11'1 1.4
2017-Oct-28 04:00N 29°47' W 092°11'3 5.1
2017-Oct-28 03:30N 29°47' W 092°08'3 5.3
2017-Oct-28 02:58N 29°48' W 092°05'5 5.1
2017-Oct-28 02:01N 29°50' W 091°59'1 5.6
2017-Oct-28 01:54N 29°50' W 091°59'2 0.2
2017-Oct-27 11:17N 29°51' W 091°56'1 5.3
2017-Oct-27 11:00N 29°50' W 091°58'3 6.5
2017-Oct-27 10:30N 29°49' W 092°01'3 6.7
2017-Oct-27 10:00N 29°48' W 092°05'3 6.8
2017-Oct-27 09:30N 29°47' W 092°09'2 4.0
2017-Oct-27 09:00N 29°47' W 092°11'0 0.1
2017-Oct-27 08:30N 29°47' W 092°11'1 1.0
2017-Oct-27 08:00N 29°47' W 092°12'2 3.6
2017-Oct-27 07:30N 29°48' W 092°13'1 2.9
2017-Oct-27 07:00N 29°48' W 092°15'3 6.2
2017-Oct-27 06:30N 29°50' W 092°18'3 6.2
2017-Oct-27 06:00N 29°51' W 092°21'  

Dump ship's entire track history